Time;durP1;ratioP1;P1;durP2;ratioP2;P2;SDS_P1;SDS_P2;PMS_P1;PMS_P2;Temp;Humidity;BMP_temperature;BMP_pressure;BME280_temperature;BME280_humidity;BME280_pressure;Samples;Min_cycle;Max_cycle;Signal;HPM_P1;HPM_P2
2021/08/10 00:00:38;;;;;;;28.10;15.85;;;;;;;13.48;100.00;101446.25;5073841;28;20513;-63
2021/08/10 00:03:03;;;;;;;28.52;15.82;;;;;;;13.48;100.00;101456.88;5073352;28;20024;-64
2021/08/10 00:05:29;;;;;;;27.60;15.25;;;;;;;13.50;100.00;101454.22;5073292;28;20024;-62
2021/08/10 00:07:55;;;;;;;27.73;14.73;;;;;;;13.50;100.00;101452.47;5073682;28;20025;-63
2021/08/10 00:10:21;;;;;;;27.73;14.57;;;;;;;13.51;100.00;101450.69;5073503;28;20056;-62
2021/08/10 00:12:46;;;;;;;30.50;14.88;;;;;;;13.52;100.00;101455.13;5073957;28;20082;-63
2021/08/10 00:15:11;;;;;;;27.40;14.63;;;;;;;13.52;100.00;101457.78;5073346;28;20471;-63
2021/08/10 00:17:37;;;;;;;26.92;14.95;;;;;;;13.53;100.00;101454.25;5073350;28;20028;-64
2021/08/10 00:20:03;;;;;;;28.38;15.48;;;;;;;13.49;100.00;101450.69;5072142;28;20066;-63
2021/08/10 00:22:29;;;;;;;28.25;15.23;;;;;;;13.48;100.00;101445.38;5071603;28;20494;-64
2021/08/10 00:24:54;;;;;;;27.27;14.23;;;;;;;13.46;100.00;101452.47;5072074;28;20099;-63
2021/08/10 00:27:19;;;;;;;26.83;13.98;;;;;;;13.51;100.00;101454.22;5073377;28;20039;-62
2021/08/10 00:29:45;;;;;;;27.70;14.10;;;;;;;13.54;100.00;101451.63;5073436;28;20078;-67
2021/08/10 00:32:10;;;;;;;27.40;13.80;;;;;;;13.51;100.00;101462.19;5073111;28;20021;-66
2021/08/10 00:34:36;;;;;;;27.38;13.68;;;;;;;13.51;100.00;101459.53;5073136;28;20124;-67
2021/08/10 00:37:05;;;;;;;27.35;14.27;;;;;;;13.52;100.00;101457.78;5073342;28;20095;-66
2021/08/10 00:39:31;;;;;;;26.40;13.48;;;;;;;13.53;100.00;101454.25;5073283;28;20112;-68
2021/08/10 00:41:56;;;;;;;27.10;13.32;;;;;;;13.54;100.00;101451.63;5073262;28;20447;-66
2021/08/10 00:44:22;;;;;;;28.30;14.25;;;;;;;13.56;100.00;101444.50;5072890;28;20060;-66
2021/08/10 00:46:47;;;;;;;27.85;13.23;;;;;;;13.59;100.00;101449.84;5073162;28;20460;-67
2021/08/10 00:49:12;;;;;;;27.90;13.73;;;;;;;13.66;100.00;101450.75;5072937;28;20074;-67
2021/08/10 00:51:38;;;;;;;26.42;13.10;;;;;;;13.67;100.00;101456.94;5072778;28;20020;-68
2021/08/10 00:54:03;;;;;;;27.27;12.85;;;;;;;13.70;100.00;101446.28;5072875;28;20052;-66
2021/08/10 00:56:29;;;;;;;27.38;12.88;;;;;;;13.72;100.00;101457.84;5072964;28;20024;-68
2021/08/10 00:58:55;;;;;;;26.52;13.15;;;;;;;13.72;100.00;101444.56;5072700;28;20095;-67
2021/08/10 01:01:20;;;;;;;26.13;12.35;;;;;;;13.74;100.00;101437.44;5073022;28;20081;-68
2021/08/10 01:03:45;;;;;;;27.63;13.18;;;;;;;13.71;100.00;101430.34;5072714;28;20063;-68
2021/08/10 01:06:19;;;;;;;24.17;11.85;;;;;;;13.71;100.00;101437.44;5072892;28;20073;-67
2021/08/10 01:09:07;;;;;;;26.23;12.48;;;;;;;13.77;100.00;101435.69;5073041;28;20065;-66
2021/08/10 01:11:38;;;;;;;24.50;11.25;;;;;;;13.75;100.00;101434.78;5069698;28;20101;-68
2021/08/10 01:14:31;;;;;;;25.65;12.20;;;;;;;13.76;100.00;101440.97;5072706;28;20032;-67
2021/08/10 01:17:02;;;;;;;26.58;12.68;;;;;;;13.78;100.00;101439.22;5067985;28;20031;-68
2021/08/10 01:19:42;;;;;;;26.35;12.40;;;;;;;13.78;100.00;101439.22;5068558;28;20041;-68
2021/08/10 01:22:09;;;;;;;25.88;11.73;;;;;;;13.78;100.00;101455.16;5069946;28;20103;-67
2021/08/10 01:24:47;;;;;;;25.85;11.05;;;;;;;13.80;100.00;101453.38;5072326;28;20058;-67
2021/08/10 01:27:30;;;;;;;25.45;11.38;;;;;;;13.87;100.00;101449.84;5072606;28;20382;-63
2021/08/10 01:30:12;;;;;;;;;;;;;;;13.87;100.00;101452.50;5073013;28;20062;-62
2021/08/10 01:32:40;;;;;;;24.97;11.03;;;;;;;13.84;100.00;101449.84;5069928;28;19913;-65
2021/08/10 01:35:07;;;;;;;27.20;11.80;;;;;;;13.83;100.00;101457.81;5072791;28;20307;-63
2021/08/10 01:37:34;;;;;;;26.63;11.30;;;;;;;13.86;100.00;101452.50;5072131;28;20029;-63
2021/08/10 01:40:06;;;;;;;25.85;10.98;;;;;;;13.84;100.00;101452.50;5072323;28;20028;-64
2021/08/10 01:42:35;;;;;;;23.77;11.17;;;;;;;13.82;100.00;101448.97;5069306;28;20348;-64
2021/08/10 01:45:02;;;;;;;26.00;11.20;;;;;;;13.82;100.00;101445.41;5072825;28;20048;-66
2021/08/10 01:47:29;;;;;;;24.83;11.20;;;;;;;13.80;100.00;101448.06;5068189;28;20024;-64
2021/08/10 01:49:57;;;;;;;24.42;11.23;;;;;;;13.84;100.00;101449.84;5072458;28;20028;-65
2021/08/10 01:52:23;;;;;;;24.98;10.80;;;;;;;13.85;100.00;101450.72;5072037;28;20060;-65
2021/08/10 01:54:49;;;;;;;24.98;11.23;;;;;;;13.88;100.00;101433.03;5072184;28;20544;-64
2021/08/10 01:57:19;;;;;;;24.70;11.13;;;;;;;13.90;100.00;101412.66;5072498;28;20119;-67
2021/08/10 01:59:50;;;;;;;24.13;10.85;;;;;;;13.95;100.00;101436.59;5072064;28;20021;-63
2021/08/10 02:02:16;;;;;;;23.90;10.90;;;;;;;13.99;100.00;101450.75;5072110;28;20524;-65
2021/08/10 02:04:44;;;;;;;25.15;10.25;;;;;;;14.01;100.00;101440.97;5071729;28;20378;-64
2021/08/10 02:07:10;;;;;;;24.67;10.77;;;;;;;13.93;100.00;101447.19;5072177;28;20066;-63
2021/08/10 02:09:37;;;;;;;26.40;11.57;;;;;;;13.91;100.00;101446.31;5072406;28;20038;-63
2021/08/10 02:12:04;;;;;;;25.65;11.05;;;;;;;13.94;100.00;101448.97;5072042;28;20032;-63
2021/08/10 02:14:30;;;;;;;25.35;11.10;;;;;;;13.88;100.00;101445.44;5072277;28;20423;-63
2021/08/10 02:17:02;;;;;;;26.70;11.15;;;;;;;13.85;100.00;101443.66;5071934;28;20024;-63
2021/08/10 02:19:28;;;;;;;27.97;11.20;;;;;;;13.84;100.00;101448.97;5067880;28;20454;-62
2021/08/10 02:22:01;;;;;;;26.42;11.05;;;;;;;13.77;100.00;101456.03;5072141;28;20032;-63
2021/08/10 02:24:32;;;;;;;26.27;10.98;;;;;;;13.72;100.00;101460.50;5071853;28;20035;-63
2021/08/10 02:27:04;;;;;;;26.77;11.23;;;;;;;13.70;100.00;101457.84;5068442;28;20031;-63
2021/08/10 02:29:37;;;;;;;26.13;11.35;;;;;;;13.65;100.00;101464.91;5072020;28;20036;-64
2021/08/10 02:32:05;;;;;;;26.58;11.43;;;;;;;13.63;100.00;101460.47;5072278;28;20028;-63
2021/08/10 02:34:30;;;;;;;24.20;11.38;;;;;;;13.59;100.00;101459.59;5075737;28;20154;-63
2021/08/10 02:36:58;;;;;;;26.85;11.50;;;;;;;13.53;100.00;101460.44;5075649;28;20052;-63
2021/08/10 02:39:25;;;;;;;25.05;11.20;;;;;;;13.54;100.00;101463.97;5075731;28;20426;-64
2021/08/10 02:41:53;;;;;;;23.88;10.48;;;;;;;13.57;100.00;101459.59;5075523;28;20028;-63
2021/08/10 02:44:19;;;;;;;23.55;10.73;;;;;;;13.53;100.00;101454.25;5075063;28;20028;-64
2021/08/10 02:46:44;;;;;;;24.00;10.38;;;;;;;13.53;100.00;101452.47;5075230;28;20511;-63
2021/08/10 02:49:11;;;;;;;23.88;10.85;;;;;;;13.53;100.00;101441.84;5075456;28;20119;-63
2021/08/10 02:51:38;;;;;;;25.48;10.43;;;;;;;13.48;100.00;101456.00;5075088;28;20043;-62
2021/08/10 02:54:04;;;;;;;23.30;10.18;;;;;;;13.50;100.00;101449.81;5075263;28;20037;-63
2021/08/10 02:56:34;;;;;;;23.95;10.00;;;;;;;13.45;100.00;101451.56;5075119;28;20052;-64
2021/08/10 02:59:01;;;;;;;23.25;9.95;;;;;;;13.42;100.00;101451.56;5071204;28;20029;-62
2021/08/10 03:01:35;;;;;;;23.65;9.70;;;;;;;13.46;100.00;101455.13;5070955;28;20446;-63
2021/08/10 03:04:03;;;;;;;23.25;9.60;;;;;;;13.43;100.00;101456.00;5071614;28;20757;-63
2021/08/10 03:06:31;;;;;;;24.65;9.85;;;;;;;13.37;100.00;101456.00;5071019;28;20085;-63
2021/08/10 03:08:59;;;;;;;23.77;9.27;;;;;;;13.36;100.00;101465.72;5074820;28;20037;-63
2021/08/10 03:11:27;;;;;;;22.73;8.82;;;;;;;13.34;100.00;101455.94;5075064;28;20034;-63
2021/08/10 03:13:54;;;;;;;22.10;8.95;;;;;;;13.34;100.00;101453.28;5074672;28;20024;-63
2021/08/10 03:16:23;;;;;;;23.27;8.90;;;;;;;13.29;100.00;101455.91;5074411;28;20029;-63
2021/08/10 03:18:51;;;;;;;23.63;9.13;;;;;;;13.24;100.00;101463.00;5075066;28;20029;-62
2021/08/10 03:21:19;;;;;;;22.45;8.80;;;;;;;13.19;100.00;101472.72;5074426;28;20455;-64
2021/08/10 03:23:47;;;;;;;21.67;8.75;;;;;;;13.12;100.00;101461.19;5074501;28;20028;-63
2021/08/10 03:26:14;;;;;;;22.48;8.70;;;;;;;13.12;100.00;101463.84;5074647;28;20039;-69
2021/08/10 03:28:41;;;;;;;23.00;8.32;;;;;;;13.14;100.00;101461.19;5074535;28;20111;-68
2021/08/10 03:31:09;;;;;;;22.73;8.63;;;;;;;13.13;100.00;101465.59;5074556;28;20421;-67
2021/08/10 03:33:35;;;;;;;22.92;8.32;;;;;;;13.13;100.00;101467.38;5074442;28;20021;-66
2021/08/10 03:36:02;;;;;;;23.23;8.52;;;;;;;13.06;100.00;101469.13;5074586;28;20082;-67
2021/08/10 03:38:28;;;;;;;22.00;8.27;;;;;;;13.01;100.00;101465.56;5069306;28;20024;-69
2021/08/10 03:40:54;;;;;;;24.08;9.00;;;;;;;12.95;100.00;101471.75;5072574;28;20070;-68
2021/08/10 03:43:20;;;;;;;23.10;8.90;;;;;;;12.89;100.00;101463.75;5074275;28;20033;-67
2021/08/10 03:45:46;;;;;;;22.80;8.73;;;;;;;12.89;100.00;101461.09;5073811;28;20032;-68
2021/08/10 03:48:13;;;;;;;22.10;8.43;;;;;;;12.93;100.00;101460.25;5074367;28;20024;-66
2021/08/10 03:50:40;;;;;;;23.60;8.45;;;;;;;12.90;100.00;101449.59;5073979;28;20056;-69
2021/08/10 03:53:05;;;;;;;23.02;8.52;;;;;;;12.89;100.00;101454.03;5074068;28;20452;-67
2021/08/10 03:55:33;;;;;;;22.05;8.00;;;;;;;12.86;100.00;101456.66;5074129;28;20059;-67
2021/08/10 03:57:59;;;;;;;21.08;8.20;;;;;;;12.82;100.00;101449.56;5069786;28;20471;-68
2021/08/10 04:00:26;;;;;;;23.48;8.40;;;;;;;12.80;100.00;101446.03;5073638;28;20081;-67
2021/08/10 04:02:53;;;;;;;21.55;8.20;;;;;;;12.79;100.00;101444.25;5074043;28;20024;-69
2021/08/10 04:05:19;;;;;;;22.52;8.40;;;;;;;12.71;100.00;101443.31;5073572;28;20024;-64
2021/08/10 04:07:44;;;;;;;22.63;8.43;;;;;;;12.71;100.00;101443.31;5073519;28;20073;-63
2021/08/10 04:10:11;;;;;;;23.58;8.85;;;;;;;12.66;100.00;101448.59;5073795;28;20475;-63
2021/08/10 04:12:36;;;;;;;22.40;8.55;;;;;;;12.62;100.00;101451.22;5073455;28;20474;-65
2021/08/10 04:15:04;;;;;;;22.58;8.27;;;;;;;12.63;100.00;101463.63;5073380;28;20024;-64
2021/08/10 04:17:34;;;;;;;21.40;8.57;;;;;;;12.58;100.00;101460.03;5070130;28;20044;-65
2021/08/10 04:20:00;;;;;;;22.70;9.25;;;;;;;12.56;100.00;101462.69;5069730;28;20505;-65
2021/08/10 04:22:25;;;;;;;21.73;8.50;;;;;;;12.53;100.00;101455.59;5073602;28;20056;-64
2021/08/10 04:24:51;;;;;;;22.55;8.85;;;;;;;12.48;100.00;101460.00;5073412;28;20025;-65
2021/08/10 04:27:17;;;;;;;22.10;8.35;;;;;;;12.48;100.00;101460.00;5073209;28;20028;-65
2021/08/10 04:29:42;;;;;;;22.48;8.73;;;;;;;12.46;100.00;101461.72;5073410;28;20024;-65
2021/08/10 04:32:09;;;;;;;23.20;9.15;;;;;;;12.48;100.00;101467.03;5073558;28;20483;-65
2021/08/10 04:34:35;;;;;;;23.77;8.95;;;;;;;12.55;100.00;101475.06;5073083;28;20055;-65
2021/08/10 04:37:01;;;;;;;22.85;9.02;;;;;;;12.62;100.00;101469.78;5073348;28;20025;-64
2021/08/10 04:39:26;;;;;;;22.75;8.95;;;;;;;12.70;100.00;101462.78;5073448;28;20370;-65
2021/08/10 04:41:55;;;;;;;23.98;8.98;;;;;;;12.77;100.00;101461.94;5073616;28;20104;-65
2021/08/10 04:44:22;;;;;;;22.73;9.07;;;;;;;12.83;100.00;101463.69;5072800;28;20450;-65
2021/08/10 04:46:47;;;;;;;22.52;8.80;;;;;;;12.93;100.00;101457.59;5073302;28;20031;-64
2021/08/10 04:49:13;;;;;;;23.63;9.18;;;;;;;12.99;100.00;101457.59;5073081;28;20040;-63
2021/08/10 04:51:38;;;;;;;21.90;8.52;;;;;;;13.01;100.00;101450.53;5072741;28;20028;-64
2021/08/10 04:54:04;;;;;;;23.05;9.02;;;;;;;13.06;100.00;101450.53;5071663;28;20032;-64
2021/08/10 04:56:29;;;;;;;23.05;8.95;;;;;;;13.05;100.00;101451.44;5072738;28;20367;-63
2021/08/10 04:58:54;;;;;;;22.45;8.70;;;;;;;13.05;100.00;101456.75;5073008;28;20104;-64
2021/08/10 05:01:20;;;;;;;23.80;9.20;;;;;;;13.04;100.00;101454.97;5072831;28;20017;-63
2021/08/10 05:03:45;;;;;;;23.35;9.30;;;;;;;13.03;100.00;101470.00;5072473;28;20024;-64
2021/08/10 05:06:10;;;;;;;23.75;9.55;;;;;;;13.03;100.00;101469.09;5072822;28;20035;-63
2021/08/10 05:08:36;;;;;;;23.33;8.90;;;;;;;13.03;100.00;101477.06;5072867;28;20349;-65
2021/08/10 05:11:02;;;;;;;22.63;8.95;;;;;;;13.08;100.00;101473.56;5072727;28;20029;-65
2021/08/10 05:13:28;;;;;;;23.20;9.88;;;;;;;13.12;100.00;101481.53;5072813;28;20021;-64
2021/08/10 05:15:53;;;;;;;23.98;9.18;;;;;;;13.14;100.00;101483.31;5072323;28;20518;-64
2021/08/10 05:18:18;;;;;;;22.73;9.13;;;;;;;13.16;100.00;101491.28;5069755;28;20025;-62
2021/08/10 05:20:44;;;;;;;22.92;9.45;;;;;;;13.17;100.00;101499.25;5067555;28;20090;-60
2021/08/10 05:23:09;;;;;;;23.20;9.10;;;;;;;13.22;100.00;101486.00;5071753;28;20035;-61
2021/08/10 05:25:34;;;;;;;22.67;8.85;;;;;;;13.23;100.00;101496.63;5069613;28;20024;-61
2021/08/10 05:28:00;;;;;;;26.42;9.32;;;;;;;13.26;100.00;101493.09;5069650;28;20021;-61
2021/08/10 05:30:25;;;;;;;24.52;9.05;;;;;;;13.30;100.00;101497.53;5069418;28;20572;-62
2021/08/10 05:32:51;;;;;;;22.65;8.88;;;;;;;13.33;100.00;101500.19;5074542;28;20020;-62
2021/08/10 05:35:16;;;;;;;24.88;8.68;;;;;;;13.37;100.00;101506.44;5069456;28;20383;-61
2021/08/10 05:37:41;;;;;;;23.02;8.98;;;;;;;13.39;100.00;101508.22;5071668;28;20472;-62
2021/08/10 05:40:07;;;;;;;23.73;9.00;;;;;;;13.46;100.00;101513.56;5071577;28;20078;-62
2021/08/10 05:42:33;;;;;;;22.52;9.20;;;;;;;13.52;100.00;101500.28;5070085;28;20450;-62
2021/08/10 05:44:58;;;;;;;26.63;9.43;;;;;;;13.60;100.00;101498.53;5067630;28;20028;-62
2021/08/10 05:47:23;;;;;;;23.27;9.15;;;;;;;13.67;100.00;101504.75;5069752;28;20883;-61
2021/08/10 05:49:49;;;;;;;22.17;8.82;;;;;;;13.74;100.00;101507.41;5067831;28;20025;-61
2021/08/10 05:52:15;;;;;;;22.83;8.68;;;;;;;13.82;100.00;101501.22;5067468;28;20051;-62
2021/08/10 05:54:40;;;;;;;22.30;9.43;;;;;;;13.87;100.00;101507.44;5065642;28;20028;-66
2021/08/10 05:57:06;;;;;;;24.05;9.15;;;;;;;13.89;100.00;101510.97;5066899;28;20459;-66
2021/08/10 05:59:31;;;;;;;22.40;8.93;;;;;;;13.94;100.00;101509.22;5068767;28;20024;-68
2021/08/10 06:01:59;;;;;;;23.17;9.07;;;;;;;13.97;100.00;101514.53;5071861;28;20574;-66
2021/08/10 06:04:25;;;;;;;21.80;8.98;;;;;;;13.90;100.00;101505.66;5073490;28;20021;-65
2021/08/10 06:06:51;;;;;;;22.77;8.85;;;;;;;13.88;100.00;101510.09;5074880;28;20059;-64
2021/08/10 06:09:16;;;;;;;23.10;9.25;;;;;;;13.86;100.00;101495.94;5075261;28;20025;-66
2021/08/10 06:11:41;;;;;;;22.98;9.18;;;;;;;13.84;100.00;101497.69;5071561;28;20441;-65
2021/08/10 06:14:08;;;;;;;23.15;9.35;;;;;;;13.91;100.00;101503.91;5075846;28;20068;-66
2021/08/10 06:16:33;;;;;;;23.70;9.65;;;;;;;13.89;100.00;101505.66;5078208;28;20106;-66
2021/08/10 06:18:59;;;;;;;23.40;9.60;;;;;;;13.82;100.00;101502.13;5081333;28;20467;-66
2021/08/10 06:21:25;;;;;;;25.10;10.48;;;;;;;13.79;100.00;101504.78;5078664;28;20036;-66
2021/08/10 06:23:51;;;;;;;24.42;9.77;;;;;;;13.80;100.00;101509.19;5078887;28;20502;-65
2021/08/10 06:26:17;;;;;;;24.92;10.10;;;;;;;13.80;100.00;101506.53;5082374;28;20968;-66
2021/08/10 06:28:42;;;;;;;24.60;10.85;;;;;;;13.83;100.00;101510.97;5077897;28;20112;-66
2021/08/10 06:31:09;;;;;;;23.85;10.38;;;;;;;13.80;100.00;101521.59;5081836;28;20490;-65
2021/08/10 06:33:34;;;;;;;27.50;11.02;;;;;;;13.82;100.00;101519.81;5077669;28;20028;-66
2021/08/10 06:35:59;;;;;;;26.92;11.10;;;;;;;13.78;100.00;101514.50;5077472;28;20547;-66
2021/08/10 06:38:25;;;;;;;25.08;10.77;;;;;;;13.73;100.00;101513.63;5078668;28;20028;-66
2021/08/10 06:40:50;;;;;;;28.25;12.00;;;;;;;13.72;100.00;101510.97;5077145;28;20039;-66
2021/08/10 06:43:16;;;;;;;26.80;12.43;;;;;;;13.68;100.00;101507.41;5071529;28;20024;-66
2021/08/10 06:45:41;;;;;;;29.85;13.40;;;;;;;13.70;100.00;101510.06;5074958;28;20036;-65
2021/08/10 06:48:07;;;;;;;29.52;12.88;;;;;;;13.67;100.00;101510.06;5079171;28;20078;-67
2021/08/10 06:50:33;;;;;;;29.52;13.38;;;;;;;13.68;100.00;101510.06;5075176;28;20037;-68
2021/08/10 06:52:58;;;;;;;28.05;12.95;;;;;;;13.65;100.00;101507.41;5077592;28;20035;-69
2021/08/10 06:55:24;;;;;;;28.60;13.40;;;;;;;13.67;100.00;101510.06;5079313;28;20024;-65
2021/08/10 06:57:49;;;;;;;33.83;14.50;;;;;;;13.72;100.00;101511.84;5077047;28;20033;-68
2021/08/10 07:00:15;;;;;;;30.15;13.25;;;;;;;13.74;100.00;101501.22;5076016;28;20019;-69
2021/08/10 07:02:40;;;;;;;29.05;13.65;;;;;;;13.79;100.00;101512.75;5076475;28;20037;-68
2021/08/10 07:05:06;;;;;;;28.95;13.50;;;;;;;13.87;100.00;101516.28;5078981;28;20419;-67
2021/08/10 07:07:31;;;;;;;29.63;14.32;;;;;;;13.96;100.00;101512.75;5080582;28;20471;-67
2021/08/10 07:09:56;;;;;;;32.58;14.73;;;;;;;14.01;100.00;101510.09;5080816;28;20031;-67
2021/08/10 07:12:22;;;;;;;32.83;14.27;;;;;;;14.00;100.00;101514.53;5077220;28;20398;-66
2021/08/10 07:14:47;;;;;;;30.67;13.40;;;;;;;13.99;100.00;101511.88;5079124;28;20028;-67
2021/08/10 07:17:13;;;;;;;29.27;13.55;;;;;;;13.99;100.00;101514.53;5081720;28;20029;-64
2021/08/10 07:19:38;;;;;;;31.15;14.07;;;;;;;14.00;100.00;101519.84;5077832;28;20051;-64
2021/08/10 07:22:03;;;;;;;27.90;12.57;;;;;;;14.01;100.00;101524.28;5079535;28;20047;-65
2021/08/10 07:24:29;;;;;;;27.80;13.55;;;;;;;14.04;100.00;101526.06;5077818;28;20044;-65
2021/08/10 07:26:55;;;;;;;30.88;14.43;;;;;;;14.12;100.00;101518.97;5077937;28;20476;-65
2021/08/10 07:29:21;;;;;;;31.08;13.43;;;;;;;14.19;100.00;101518.09;5074263;28;20496;-64
2021/08/10 07:31:46;;;;;;;28.60;13.73;;;;;;;14.20;100.00;101526.94;5074264;28;20025;-64
2021/08/10 07:34:12;;;;;;;28.48;13.95;;;;;;;14.23;100.00;101527.84;5073848;28;20024;-64
2021/08/10 07:36:38;;;;;;;27.60;12.43;;;;;;;14.29;100.00;101535.81;5073675;28;20025;-64
2021/08/10 07:39:04;;;;;;;30.83;13.70;;;;;;;14.35;100.00;101542.03;5073968;28;20116;-64
2021/08/10 07:41:30;;;;;;;28.95;12.77;;;;;;;14.39;100.00;101538.50;5073696;28;20485;-64
2021/08/10 07:43:55;;;;;;;26.58;12.13;;;;;;;14.46;100.00;101540.25;5073548;28;20043;-64
2021/08/10 07:46:21;;;;;;;27.73;12.82;;;;;;;14.57;100.00;101537.56;5074067;28;20155;-65
2021/08/10 07:48:46;;;;;;;26.95;11.93;;;;;;;14.71;100.00;101527.84;5073974;28;20020;-64
2021/08/10 07:51:12;;;;;;;24.95;10.57;;;;;;;14.87;100.00;101538.44;5074333;28;20078;-64
2021/08/10 07:53:38;;;;;;;25.70;10.48;;;;;;;14.82;100.00;101538.44;5074248;28;20479;-64
2021/08/10 07:56:04;;;;;;;26.77;11.15;;;;;;;14.84;100.00;101542.00;5074005;28;20034;-64
2021/08/10 07:58:30;;;;;;;25.83;10.27;;;;;;;14.80;100.00;101535.78;5072372;28;20547;-62
2021/08/10 08:00:55;;;;;;;24.70;10.70;;;;;;;14.86;100.00;101539.34;5079448;28;20115;-61
2021/08/10 08:03:20;;;;;;;26.48;10.68;;;;;;;15.01;100.00;101541.94;5075634;28;20032;-62
2021/08/10 08:05:47;;;;;;;26.15;11.20;;;;;;;15.23;100.00;101545.44;5078364;28;20024;-62
2021/08/10 08:08:12;;;;;;;25.10;11.10;;;;;;;15.30;100.00;101538.28;5079155;28;20070;-63
2021/08/10 08:10:37;;;;;;;25.55;11.80;;;;;;;15.47;100.00;101540.91;5078857;28;20470;-62
2021/08/10 08:13:03;;;;;;;24.15;10.98;;;;;;;15.63;100.00;101537.25;5079399;28;20032;-62
2021/08/10 08:15:28;;;;;;;25.08;10.80;;;;;;;15.61;100.00;101533.72;5077184;28;20517;-62
2021/08/10 08:17:53;;;;;;;25.45;10.05;;;;;;;15.73;100.00;101537.19;5074979;28;20433;-62
2021/08/10 08:20:19;;;;;;;23.92;8.93;;;;;;;16.00;100.00;101528.16;5077987;28;20045;-62
2021/08/10 08:22:45;;;;;;;23.75;9.15;;;;;;;16.53;100.00;101541.97;5075268;28;20604;-62
2021/08/10 08:25:11;;;;;;;21.55;7.65;;;;;;;16.55;96.60;101545.47;5074290;28;20024;-62
2021/08/10 08:27:37;;;;;;;20.60;6.60;;;;;;;16.53;97.38;101540.16;5077316;28;20035;-61
2021/08/10 08:30:05;;;;;;;21.35;6.97;;;;;;;16.48;95.83;101541.97;5078343;28;20025;-67
2021/08/10 08:32:30;;;;;;;20.60;6.97;;;;;;;16.31;95.93;101534.13;5076736;28;20044;-65
2021/08/10 08:34:55;;;;;;;21.02;7.38;;;;;;;16.34;100.00;101531.44;5078438;28;20025;-66
2021/08/10 08:37:21;;;;;;;20.73;7.00;;;;;;;16.61;100.00;101525.88;5076892;28;20375;-68
2021/08/10 08:39:46;;;;;;;21.45;7.32;;;;;;;16.85;97.82;101527.41;5077570;28;20058;-69
2021/08/10 08:42:14;;;;;;;20.70;7.35;;;;;;;17.05;99.89;101520.09;5077210;28;20560;-67
2021/08/10 08:44:39;;;;;;;18.95;6.85;;;;;;;17.22;97.36;101524.31;5080626;28;20033;-67
2021/08/10 08:47:06;;;;;;;19.75;6.95;;;;;;;17.31;89.70;101517.97;5078483;28;20036;-69
2021/08/10 08:49:34;;;;;;;19.60;7.03;;;;;;;17.33;88.00;101524.16;5076884;28;20034;-69
2021/08/10 08:52:01;;;;;;;19.40;6.85;;;;;;;17.36;88.68;101517.03;5075625;28;20448;-67
2021/08/10 08:54:28;;;;;;;20.25;7.25;;;;;;;17.34;89.69;101521.47;5074060;28;20108;-67
2021/08/10 08:56:54;;;;;;;18.60;6.47;;;;;;;17.28;88.47;101516.22;5076602;28;20025;-64
2021/08/10 08:59:22;;;;;;;19.98;6.90;;;;;;;17.40;88.37;101520.53;5077886;28;20499;-64
2021/08/10 09:01:49;;;;;;;20.70;6.80;;;;;;;17.86;89.80;101521.66;5077638;28;20024;-64
2021/08/10 09:04:14;;;;;;;20.02;6.78;;;;;;;18.30;81.75;101522.75;5073212;28;20024;-64
2021/08/10 09:06:40;;;;;;;19.30;6.60;;;;;;;18.39;82.60;101517.28;5072536;28;20043;-66
2021/08/10 09:09:20;;;;;;;18.77;5.78;;;;;;;18.49;82.58;101523.31;5072589;28;20028;-65
2021/08/10 09:11:52;;;;;;;19.92;6.00;;;;;;;18.25;81.65;101520.16;5072365;28;20024;-64
2021/08/10 09:14:18;;;;;;;19.13;6.07;;;;;;;18.32;80.43;101529.00;5072659;28;20056;-64
2021/08/10 09:17:02;;;;;;;19.88;6.13;;;;;;;18.37;81.79;101523.56;5072205;28;20033;-64
2021/08/10 09:19:45;;;;;;;19.17;6.00;;;;;;;18.39;80.57;101517.28;5068988;28;20442;-64
2021/08/10 09:22:25;;;;;;;19.83;5.60;;;;;;;18.53;78.17;101519.69;5072285;28;20121;-64
2021/08/10 09:24:57;;;;;;;18.35;5.22;;;;;;;18.76;78.96;101529.09;5068403;28;20025;-65
2021/08/10 09:27:23;;;;;;;19.42;5.32;;;;;;;18.80;75.49;101529.00;5068888;28;20048;-64
2021/08/10 09:29:50;;;;;;;18.98;5.28;;;;;;;18.91;75.94;101530.63;5072705;28;20149;-65
2021/08/10 09:32:16;;;;;;;18.23;5.60;;;;;;;18.91;73.45;101534.16;5072271;28;20039;-63
2021/08/10 09:34:42;;;;;;;16.92;5.03;;;;;;;18.83;74.26;101544.13;5072713;28;20024;-64
2021/08/10 09:37:15;;;;;;;17.73;5.20;;;;;;;18.82;76.28;101531.66;5073463;28;20374;-64
2021/08/10 09:39:40;;;;;;;18.95;5.70;;;;;;;18.97;74.34;101525.13;5076424;28;20374;-64
2021/08/10 09:42:12;;;;;;;19.58;5.57;;;;;;;19.72;70.96;101528.00;5076330;28;20024;-64
2021/08/10 09:45:02;;;;;;;19.23;5.97;;;;;;;19.81;73.03;101529.63;5076702;28;20067;-65
2021/08/10 09:47:41;;;;;;;17.65;5.35;;;;;;;19.70;73.63;101529.84;5073601;28;20536;-64
2021/08/10 09:50:17;;;;;;;18.17;5.28;;;;;;;20.38;72.89;101541.66;5077045;28;20111;-64
2021/08/10 09:52:43;;;;;;;19.65;5.72;;;;;;;20.59;69.31;101537.53;5076566;28;20036;-66
2021/08/10 09:55:14;;;;;;;18.95;5.57;;;;;;;20.41;68.64;101543.38;5076095;28;20029;-67
2021/08/10 09:58:00;;;;;;;20.23;5.70;;;;;;;20.06;70.48;101534.41;5076248;28;20024;-67
2021/08/10 10:00:39;;;;;;;17.55;5.43;;;;;;;19.98;71.23;101532.81;5072572;28;20468;-66
2021/08/10 10:03:24;;;;;;;18.85;5.78;;;;;;;20.27;70.98;101546.41;5073783;28;20526;-66
2021/08/10 10:05:50;;;;;;;19.35;5.45;;;;;;;21.27;65.08;101537.50;5075962;28;20036;-66
2021/08/10 10:08:18;;;;;;;17.60;5.00;;;;;;;21.24;64.54;101549.22;5075801;28;20028;-66
2021/08/10 10:10:44;;;;;;;18.67;5.43;;;;;;;20.62;66.40;101544.63;5075860;28;20033;-66
2021/08/10 10:13:13;;;;;;;18.13;5.88;;;;;;;20.12;68.27;101539.63;5076354;28;20032;-66
2021/08/10 10:15:39;;;;;;;19.80;6.13;;;;;;;19.77;69.21;101539.50;5075835;28;20029;-66
2021/08/10 10:18:06;;;;;;;18.38;6.30;;;;;;;19.56;72.20;101540.88;5075966;28;20027;-66
2021/08/10 10:20:32;;;;;;;19.42;6.90;;;;;;;19.39;71.69;101533.19;5075746;28;20044;-65
2021/08/10 10:23:02;;;;;;;19.02;6.20;;;;;;;19.57;72.97;101542.66;5075736;28;20386;-64
2021/08/10 10:25:28;;;;;;;19.40;6.90;;;;;;;19.61;72.02;101544.34;5075835;28;20464;-65
2021/08/10 10:27:55;;;;;;;18.42;6.40;;;;;;;19.66;71.40;101538.91;5075869;28;20031;-65
2021/08/10 10:30:21;;;;;;;18.98;6.43;;;;;;;19.52;70.11;101542.75;5075737;28;20481;-64
2021/08/10 10:32:46;;;;;;;18.35;6.60;;;;;;;19.49;70.82;101540.13;5074390;28;20020;-64
2021/08/10 10:35:12;;;;;;;19.52;6.40;;;;;;;19.44;70.64;101539.38;5075170;28;20040;-64
2021/08/10 10:37:38;;;;;;;19.17;6.20;;;;;;;19.50;70.71;101536.53;5071299;28;20429;-64
2021/08/10 10:40:06;;;;;;;19.48;6.90;;;;;;;19.46;69.94;101542.00;5075008;28;20479;-66
2021/08/10 10:42:33;;;;;;;19.45;6.80;;;;;;;19.48;71.54;101538.38;5074315;28;20099;-63
2021/08/10 10:44:58;;;;;;;20.00;6.18;;;;;;;19.66;70.71;101536.22;5082456;28;20024;-62
2021/08/10 10:47:24;;;;;;;18.75;6.00;;;;;;;19.69;71.64;101533.47;5077178;28;20066;-62
2021/08/10 10:49:56;;;;;;;20.35;6.00;;;;;;;19.78;70.42;101541.31;5078449;28;20028;-62
2021/08/10 10:52:22;;;;;;;17.88;6.10;;;;;;;19.66;71.02;101523.69;5082800;28;20028;-62
2021/08/10 10:54:48;;;;;;;19.58;6.10;;;;;;;19.59;70.64;101531.91;5079814;28;20052;-64
2021/08/10 10:57:36;;;;;;;19.60;6.13;;;;;;;19.97;69.91;101525.66;5080069;28;20060;-64
2021/08/10 11:00:05;;;;;;;20.17;6.20;;;;;;;20.20;66.22;101527.78;5006753;28;20052;-64
2021/08/10 11:02:32;;;;;;;16.95;5.75;;;;;;;20.90;65.66;101534.91;5004600;28;20084;-62
2021/08/10 11:05:06;;;;;;;19.15;5.78;;;;;;;21.24;65.37;101525.88;5003323;28;20050;-62
2021/08/10 11:07:44;;;;;;;17.65;5.88;;;;;;;21.70;63.03;101523.66;5004482;28;20125;-62